Time;durP1;ratioP1;P1;durP2;ratioP2;P2;SDS_P1;SDS_P2;PMS_P1;PMS_P2;Temp;Humidity;BMP_temperature;BMP_pressure;BME280_temperature;BME280_humidity;BME280_pressure;Samples;Min_cycle;Max_cycle;Signal;HPM_P1;HPM_P2
2021/09/27 00:01:30;;;;;;;10.55;6.22;;;16.00;88.20;;;;;;1905419;75;21023;-46
2021/09/27 00:04:00;;;;;;;7.40;5.17;;;16.00;88.20;;;;;;1905276;75;21134;-47
2021/09/27 00:06:29;;;;;;;10.13;5.45;;;16.00;88.30;;;;;;1905326;75;21008;-47
2021/09/27 00:08:58;;;;;;;11.20;5.58;;;15.90;88.40;;;;;;1905384;75;21067;-46
2021/09/27 00:11:28;;;;;;;7.60;5.33;;;15.90;88.50;;;;;;1905309;75;21024;-45
2021/09/27 00:14:00;;;;;;;8.50;6.00;;;15.90;88.60;;;;;;1905387;75;21047;-46
2021/09/27 00:16:31;;;;;;;9.35;5.97;;;15.90;88.70;;;;;;1905296;75;21028;-45
2021/09/27 00:19:01;;;;;;;10.13;6.15;;;15.90;88.70;;;;;;1905288;75;21073;-46
2021/09/27 00:21:33;;;;;;;7.58;5.50;;;15.90;88.70;;;;;;1905350;74;21024;-45
2021/09/27 00:24:03;;;;;;;10.50;5.85;;;15.90;88.70;;;;;;1905376;75;21070;-45
2021/09/27 00:26:33;;;;;;;7.97;5.33;;;15.90;88.70;;;;;;1905322;75;21020;-47
2021/09/27 00:29:02;;;;;;;12.78;6.35;;;15.90;88.70;;;;;;1905429;75;21031;-47
2021/09/27 00:31:32;;;;;;;11.18;5.50;;;15.90;88.70;;;;;;1905323;74;21024;-46
2021/09/27 00:34:01;;;;;;;9.88;6.05;;;15.80;88.80;;;;;;1905265;74;21090;-46
2021/09/27 00:36:30;;;;;;;9.38;5.47;;;15.80;88.80;;;;;;1905365;75;21094;-46
2021/09/27 00:39:00;;;;;;;10.03;6.25;;;15.80;88.80;;;;;;1905383;74;21136;-46
2021/09/27 00:41:29;;;;;;;8.28;5.75;;;15.80;88.80;;;;;;1905393;75;21085;-45
2021/09/27 00:43:59;;;;;;;7.97;6.47;;;15.80;88.80;;;;;;1905361;75;21023;-45
2021/09/27 00:46:31;;;;;;;7.78;6.03;;;15.80;88.90;;;;;;1905386;75;21108;-46
2021/09/27 00:49:02;;;;;;;9.63;6.40;;;15.80;89.00;;;;;;1905389;74;21180;-45
2021/09/27 00:51:33;;;;;;;8.68;6.00;;;15.80;89.10;;;;;;1905259;74;21011;-47
2021/09/27 00:54:05;;;;;;;8.70;6.15;;;15.80;89.20;;;;;;1903954;74;21407;-46
2021/09/27 00:56:37;;;;;;;8.75;5.75;;;15.80;89.20;;;;;;1905252;75;21031;-47
2021/09/27 00:59:08;;;;;;;9.50;5.92;;;15.80;89.20;;;;;;1905136;74;21100;-46
2021/09/27 01:01:37;;;;;;;10.05;6.75;;;15.80;89.20;;;;;;1905417;75;21024;-45
2021/09/27 01:04:07;;;;;;;10.18;6.45;;;15.80;89.10;;;;;;1905272;74;21067;-46
2021/09/27 01:06:56;;;;;;;7.95;5.92;;;15.80;89.10;;;;;;1905361;75;21096;-46
2021/09/27 01:09:43;;;;;;;7.87;5.55;;;15.80;89.20;;;;;;1905240;75;21081;-46
2021/09/27 01:12:18;;;;;;;8.73;6.65;;;15.80;89.20;;;;;;1904687;74;21105;-45
2021/09/27 01:14:50;;;;;;;9.50;6.15;;;15.90;89.30;;;;;;1905272;74;21482;-46
2021/09/27 01:17:22;;;;;;;11.78;6.60;;;15.90;89.30;;;;;;1904758;74;21059;-45
2021/09/27 01:20:19;;;;;;;8.68;6.75;;;15.90;89.30;;;;;;1905377;75;21051;-46
2021/09/27 01:23:11;;;;;;;11.60;5.92;;;15.90;89.30;;;;;;1905402;75;21012;-45
2021/09/27 01:26:12;;;;;;;14.28;6.35;;;15.90;89.30;;;;;;1905342;75;21097;-46
2021/09/27 01:29:09;;;;;;;11.97;6.72;;;15.90;89.40;;;;;;1905333;75;21024;-45
2021/09/27 01:31:50;;;;;;;7.58;6.25;;;15.90;89.30;;;;;;1905352;75;21398;-47
2021/09/27 01:34:22;;;;;;;8.58;6.25;;;15.90;89.30;;;;;;1904124;75;21094;-45
2021/09/27 01:37:17;;;;;;;9.65;6.22;;;15.90;89.20;;;;;;1905323;75;21531;-45
2021/09/27 01:40:08;;;;;;;12.37;6.50;;;16.00;89.30;;;;;;1905129;74;21087;-45
2021/09/27 01:43:14;;;;;;;9.93;5.70;;;15.90;89.20;;;;;;1905390;75;21020;-46
2021/09/27 01:45:55;;;;;;;11.83;5.83;;;16.00;89.40;;;;;;1905442;75;21102;-46
2021/09/27 01:48:33;;;;;;;9.20;5.87;;;15.90;89.30;;;;;;1905337;75;21028;-47
2021/09/27 01:51:08;;;;;;;9.68;5.62;;;16.00;89.40;;;;;;1905440;75;21040;-46
2021/09/27 01:53:44;;;;;;;10.88;6.22;;;16.00;89.40;;;;;;1905200;74;21410;-46
2021/09/27 01:56:22;;;;;;;10.30;6.22;;;16.00;89.40;;;;;;1899423;75;21097;-47
2021/09/27 01:59:03;;;;;;;17.30;6.42;;;15.90;89.50;;;;;;1905355;74;21077;-45
2021/09/27 02:01:44;;;;;;;11.18;6.08;;;15.90;89.40;;;;;;1905369;75;21017;-45
2021/09/27 02:04:16;;;;;;;10.18;6.62;;;15.90;89.40;;;;;;1905424;75;21039;-46
2021/09/27 02:06:48;;;;;;;12.03;6.30;;;16.00;89.60;;;;;;1894074;74;21059;-45
2021/09/27 02:09:23;;;;;;;22.40;7.17;;;15.90;89.40;;;;;;1905552;74;21070;-46
2021/09/27 02:11:55;;;;;;;39.13;7.92;;;16.00;89.50;;;;;;1905733;74;21032;-47
2021/09/27 02:14:32;;;;;;;16.42;6.70;;;16.00;89.50;;;;;;1905429;74;21011;-45
2021/09/27 02:17:26;;;;;;;14.30;6.45;;;15.90;89.50;;;;;;1905364;75;21007;-45
2021/09/27 02:20:01;;;;;;;8.03;5.90;;;16.00;89.70;;;;;;1905382;74;21055;-47
2021/09/27 02:22:48;;;;;;;9.25;6.67;;;16.00;89.60;;;;;;1905272;74;21044;-46
2021/09/27 02:25:22;;;;;;;10.78;6.92;;;16.00;89.60;;;;;;1896326;74;21086;-46
2021/09/27 02:27:53;;;;;;;9.18;6.70;;;15.90;89.50;;;;;;1901631;74;21165;-46
2021/09/27 02:30:25;;;;;;;10.23;6.33;;;16.00;90.10;;;;;;1905496;75;21012;-45
2021/09/27 02:33:00;;;;;;;7.95;6.65;;;16.00;89.60;;;;;;1905411;74;21019;-45
2021/09/27 02:35:31;;;;;;;8.98;5.90;;;16.00;89.70;;;;;;1905501;74;21474;-46
2021/09/27 02:38:15;;;;;;;7.60;6.28;;;16.00;90.10;;;;;;1905312;74;21470;-45
2021/09/27 02:40:47;;;;;;;8.35;6.10;;;16.00;89.70;;;;;;1905414;74;21012;-46
2021/09/27 02:43:17;;;;;;;7.50;6.05;;;16.00;89.70;;;;;;1904976;75;21073;-45
2021/09/27 02:45:48;;;;;;;14.00;6.60;;;16.00;89.70;;;;;;1905441;75;21101;-45
2021/09/27 02:48:54;;;;;;;11.90;7.20;;;16.00;89.70;;;;;;1905334;75;21505;-46
2021/09/27 02:51:05;;;;;;;14.73;8.05;;;16.00;89.70;;;;;;1898539;74;21047;-46
2021/09/27 02:53:34;;;;;;;10.40;6.80;;;15.90;89.60;;;;;;1905379;74;21035;-45
2021/09/27 02:56:21;;;;;;;11.65;6.55;;;16.00;89.70;;;;;;1905293;75;21027;-45
2021/09/27 02:59:14;;;;;;;10.13;6.35;;;16.00;89.70;;;;;;1905341;75;21024;-50
2021/09/27 03:01:46;;;;;;;10.35;6.37;;;15.90;89.70;;;;;;1905414;74;21011;-46
2021/09/27 03:04:24;;;;;;;8.68;5.83;;;15.90;89.70;;;;;;1906429;74;21040;-46
2021/09/27 03:07:12;;;;;;;11.57;6.80;;;15.90;89.80;;;;;;1912215;74;21019;-45
2021/09/27 03:09:53;;;;;;;12.30;6.83;;;15.90;89.70;;;;;;1924680;74;21089;-46
2021/09/27 03:12:51;;;;;;;9.05;6.50;;;15.90;89.70;;;;;;1924081;74;21018;-45
2021/09/27 03:15:49;;;;;;;15.03;7.17;;;15.90;90.10;;;;;;1924722;74;21015;-46
2021/09/27 03:18:27;;;;;;;11.48;6.80;;;15.90;89.80;;;;;;1924854;74;21112;-45
2021/09/27 03:21:15;;;;;;;7.12;5.62;;;15.90;89.90;;;;;;1924113;74;21484;-47
2021/09/27 03:23:48;;;;;;;16.50;8.23;;;15.80;89.70;;;;;;1924688;74;21112;-46
2021/09/27 03:26:22;;;;;;;10.90;6.40;;;15.80;89.80;;;;;;1924795;74;21413;-46
2021/09/27 03:29:06;;;;;;;11.75;7.05;;;15.80;89.90;;;;;;1924813;74;21022;-46
2021/09/27 03:31:59;;;;;;;13.08;6.70;;;15.80;90.00;;;;;;1924857;74;21100;-46
2021/09/27 03:34:37;;;;;;;11.30;6.58;;;15.80;89.90;;;;;;1924658;74;21043;-47
2021/09/27 03:37:15;;;;;;;10.48;6.95;;;15.80;90.00;;;;;;1924414;74;21531;-46
2021/09/27 03:40:02;;;;;;;11.50;7.58;;;15.80;90.00;;;;;;1923988;74;20994;-46
2021/09/27 03:42:52;;;;;;;10.60;7.45;;;15.80;90.00;;;;;;1924803;74;21010;-45
2021/09/27 03:45:30;;;;;;;15.28;7.58;;;15.80;90.00;;;;;;1924027;74;21070;-46
2021/09/27 03:48:04;;;;;;;14.15;7.55;;;15.80;90.10;;;;;;1924670;74;21483;-48
2021/09/27 03:50:46;;;;;;;;;;;15.70;90.00;;;;;;1927583;74;21015;-45
2021/09/27 03:53:33;;;;;;;9.95;7.03;;;15.70;90.10;;;;;;1923430;74;20104;-46
2021/09/27 03:56:11;;;;;;;12.95;7.75;;;15.70;90.00;;;;;;1917519;74;21134;-45
2021/09/27 03:58:46;;;;;;;14.35;7.50;;;15.80;90.00;;;;;;1924995;74;21030;-46
2021/09/27 04:01:24;;;;;;;15.23;8.68;;;15.80;90.00;;;;;;1924541;74;21477;-45
2021/09/27 04:04:01;;;;;;;14.25;7.37;;;15.80;90.10;;;;;;1910749;74;21096;-47
2021/09/27 04:06:54;;;;;;;10.88;7.08;;;15.80;90.10;;;;;;1924808;74;21062;-45
2021/09/27 04:09:32;;;;;;;8.68;7.15;;;15.80;90.10;;;;;;1924671;74;21089;-46
2021/09/27 04:12:19;;;;;;;9.83;6.40;;;15.80;90.10;;;;;;1893774;74;21061;-46
2021/09/27 04:14:51;;;;;;;14.87;7.80;;;15.80;90.10;;;;;;1924711;74;21058;-46
2021/09/27 04:17:25;;;;;;;12.20;8.08;;;15.80;90.20;;;;;;1924606;74;21084;-45
2021/09/27 04:20:03;;;;;;;19.40;11.65;;;15.80;90.10;;;;;;1923417;74;21504;-46
2021/09/27 04:22:38;;;;;;;10.28;7.83;;;15.80;90.00;;;;;;1924715;74;21457;-46
2021/09/27 04:25:15;;;;;;;;;;;15.90;90.20;;;;;;1927453;74;21077;-46
2021/09/27 04:27:56;;;;;;;12.60;7.03;;;15.90;90.30;;;;;;1924668;74;20371;-48
2021/09/27 04:30:49;;;;;;;11.08;7.22;;;15.90;90.10;;;;;;1924718;74;21410;-47
2021/09/27 04:33:27;;;;;;;16.37;8.08;;;15.90;90.20;;;;;;1924614;74;21050;-46
2021/09/27 04:36:23;;;;;;;8.10;6.80;;;15.90;90.20;;;;;;1923740;74;21093;-46
2021/09/27 04:38:55;;;;;;;22.77;14.50;;;15.90;90.20;;;;;;1919330;74;21003;-50
2021/09/27 04:41:36;;;;;;;15.38;8.75;;;16.00;90.20;;;;;;1924710;74;21042;-45
2021/09/27 04:44:17;;;;;;;11.10;7.10;;;16.10;90.30;;;;;;1924680;74;21073;-45
2021/09/27 04:47:07;;;;;;;10.60;7.33;;;16.10;90.30;;;;;;1924590;74;21027;-48
2021/09/27 04:49:57;;;;;;;9.68;7.30;;;16.20;90.20;;;;;;1924639;74;20987;-45
2021/09/27 04:52:38;;;;;;;9.10;7.08;;;16.30;90.30;;;;;;1886947;76;21025;-49
2021/09/27 04:55:19;;;;;;;9.80;6.97;;;16.40;90.40;;;;;;1846245;76;21548;-46
2021/09/27 04:58:10;;;;;;;15.48;6.87;;;16.50;90.20;;;;;;1877140;76;21563;-47
2021/09/27 05:01:02;;;;;;;14.68;7.58;;;16.60;90.30;;;;;;1878014;76;21066;-47
2021/09/27 05:03:55;;;;;;;10.70;7.20;;;16.60;90.20;;;;;;1878071;76;21058;-48
2021/09/27 05:06:55;;;;;;;11.30;7.22;;;16.70;90.00;;;;;;1874025;76;21070;-45
2021/09/27 05:09:45;;;;;;;19.20;10.95;;;16.70;90.00;;;;;;1847868;77;21031;-46
2021/09/27 05:12:29;;;;;;;10.58;8.13;;;16.70;89.80;;;;;;1870500;77;21062;-46
2021/09/27 05:15:09;;;;;;;9.68;6.00;;;16.70;89.60;;;;;;1871187;77;21047;-47
2021/09/27 05:18:07;;;;;;;11.53;6.95;;;16.70;89.50;;;;;;1871237;76;21512;-47
2021/09/27 05:20:48;;;;;;;12.00;6.87;;;16.80;89.30;;;;;;1871345;77;21050;-47
2021/09/27 05:23:48;;;;;;;11.00;6.85;;;16.70;89.00;;;;;;1871388;77;21599;-48
2021/09/27 05:26:29;;;;;;;10.18;7.35;;;16.70;88.90;;;;;;1871420;77;21043;-48
2021/09/27 05:29:07;;;;;;;10.30;7.47;;;16.70;88.70;;;;;;1870388;77;21063;-48
2021/09/27 05:32:04;;;;;;;14.80;7.42;;;16.70;88.80;;;;;;1871365;77;21066;-47
2021/09/27 05:35:00;;;;;;;16.87;7.42;;;16.80;88.90;;;;;;1801783;79;21101;-47
2021/09/27 05:37:38;;;;;;;9.60;7.55;;;16.80;88.90;;;;;;1907199;75;21047;-48
2021/09/27 05:40:38;;;;;;;13.35;7.40;;;16.90;88.90;;;;;;1914531;75;21019;-46
2021/09/27 05:43:31;;;;;;;12.15;6.97;;;17.00;88.50;;;;;;1900120;75;21050;-46
2021/09/27 05:46:36;;;;;;;16.25;8.63;;;17.00;88.10;;;;;;1914951;75;21126;-48
2021/09/27 05:49:11;;;;;;;11.22;7.33;;;17.00;88.20;;;;;;1914984;75;21085;-47
2021/09/27 05:51:55;;;;;;;12.28;6.75;;;17.00;87.90;;;;;;1915096;74;21031;-47
2021/09/27 05:54:56;;;;;;;21.60;11.33;;;17.00;87.70;;;;;;1903762;75;21489;-46
2021/09/27 05:57:34;;;;;;;18.25;8.85;;;17.10;86.60;;;;;;1914788;74;21047;-47
2021/09/27 06:00:12;;;;;;;14.30;7.00;;;17.20;87.00;;;;;;1914962;75;21104;-46
2021/09/27 06:02:47;;;;;;;9.85;5.28;;;17.20;86.60;;;;;;1914418;75;21121;-46
2021/09/27 06:05:19;;;;;;;10.78;5.12;;;17.30;85.70;;;;;;1915057;75;21446;-46
2021/09/27 06:08:08;;;;;;;11.43;4.47;;;17.30;83.90;;;;;;1905786;75;21138;-48
2021/09/27 06:10:42;;;;;;;10.95;6.10;;;17.30;83.50;;;;;;1905297;74;21019;-46
2021/09/27 06:13:26;;;;;;;11.12;6.40;;;17.30;84.10;;;;;;1905550;75;20991;-45
2021/09/27 06:16:21;;;;;;;10.15;6.00;;;17.30;84.30;;;;;;1905571;75;21501;-46
2021/09/27 06:18:59;;;;;;;8.18;5.10;;;17.30;84.20;;;;;;1905409;75;21039;-49
2021/09/27 06:22:07;;;;;;;9.93;5.53;;;17.40;84.20;;;;;;1905462;75;21458;-47
2021/09/27 06:24:44;;;;;;;8.55;5.35;;;17.40;83.40;;;;;;1905124;74;21477;-46
2021/09/27 06:27:33;;;;;;;7.92;6.05;;;17.40;83.80;;;;;;1904886;74;21043;-46
2021/09/27 06:30:26;;;;;;;17.10;7.55;;;17.40;83.90;;;;;;1905385;74;21040;-46
2021/09/27 06:33:19;;;;;;;11.45;6.05;;;17.40;83.90;;;;;;1905338;74;21008;-47
2021/09/27 06:35:50;;;;;;;8.20;5.55;;;17.40;84.10;;;;;;1905291;74;21533;-45
2021/09/27 06:38:21;;;;;;;10.53;6.65;;;17.50;84.50;;;;;;1905172;75;21019;-45
2021/09/27 06:40:51;;;;;;;10.80;5.58;;;17.50;84.00;;;;;;1905069;74;21129;-46
2021/09/27 06:43:24;;;;;;;12.07;6.78;;;17.50;84.10;;;;;;1905364;74;21139;-46
2021/09/27 06:45:54;;;;;;;15.53;6.72;;;17.60;82.70;;;;;;1905438;75;21102;-45
2021/09/27 06:48:24;;;;;;;11.05;5.30;;;17.60;82.10;;;;;;1905248;75;21027;-46
2021/09/27 06:50:55;;;;;;;10.15;4.87;;;17.50;82.20;;;;;;1905362;75;21027;-46
2021/09/27 06:53:25;;;;;;;8.78;5.33;;;17.50;81.20;;;;;;1904800;74;21151;-45
2021/09/27 06:55:55;;;;;;;7.45;5.80;;;17.50;81.00;;;;;;1904858;75;21004;-46
2021/09/27 06:58:24;;;;;;;14.70;5.95;;;17.50;81.50;;;;;;1905252;75;21023;-46
2021/09/27 07:00:55;;;;;;;12.43;6.05;;;17.50;81.70;;;;;;1905289;74;21077;-45
2021/09/27 07:03:25;;;;;;;8.65;5.75;;;17.50;81.80;;;;;;1905283;75;21031;-46
2021/09/27 07:05:54;;;;;;;9.73;5.03;;;17.60;81.40;;;;;;1905260;75;21105;-48
2021/09/27 07:08:24;;;;;;;9.48;5.00;;;17.60;80.90;;;;;;1904590;75;21548;-47
2021/09/27 07:10:54;;;;;;;9.30;4.75;;;17.60;80.50;;;;;;1903663;75;21059;-45
2021/09/27 07:13:24;;;;;;;10.80;4.87;;;17.70;80.00;;;;;;1903651;74;21082;-46
2021/09/27 07:15:54;;;;;;;7.58;5.00;;;17.70;79.70;;;;;;1903472;75;21113;-46
2021/09/27 07:18:23;;;;;;;11.10;5.05;;;17.70;78.90;;;;;;1903532;75;21083;-47
2021/09/27 07:20:53;;;;;;;9.73;4.87;;;17.70;78.60;;;;;;1904260;75;21055;-46
2021/09/27 07:23:22;;;;;;;9.20;4.80;;;17.80;78.10;;;;;;1904402;75;21055;-48
2021/09/27 07:25:51;;;;;;;25.77;8.00;;;17.80;77.50;;;;;;1905220;75;21023;-46
2021/09/27 07:28:22;;;;;;;9.43;5.12;;;17.90;78.10;;;;;;1905313;75;21073;-46
2021/09/27 07:30:51;;;;;;;9.85;7.40;;;17.90;77.40;;;;;;1905142;75;21081;-47
2021/09/27 07:33:21;;;;;;;11.55;6.40;;;18.00;77.10;;;;;;1905247;74;21024;-47
2021/09/27 07:35:50;;;;;;;9.65;4.62;;;18.10;77.40;;;;;;1905291;75;21081;-48
2021/09/27 07:38:20;;;;;;;15.98;7.08;;;18.20;76.30;;;;;;1903851;75;21150;-46
2021/09/27 07:40:50;;;;;;;12.03;5.70;;;18.20;75.60;;;;;;1904630;74;21531;-50
2021/09/27 07:43:20;;;;;;;10.85;5.17;;;18.20;76.30;;;;;;1904630;75;21050;-48
2021/09/27 07:45:49;;;;;;;10.65;4.50;;;18.30;76.50;;;;;;1904534;74;21027;-47
2021/09/27 07:48:19;;;;;;;9.55;4.80;;;18.30;76.10;;;;;;1904759;75;21086;-47
2021/09/27 07:50:51;;;;;;;9.13;4.25;;;18.30;72.20;;;;;;1904707;75;20999;-49
2021/09/27 07:53:22;;;;;;;10.55;4.67;;;18.30;72.00;;;;;;1904565;75;21077;-47
2021/09/27 07:55:53;;;;;;;7.85;3.75;;;18.30;71.40;;;;;;1904595;75;21087;-49
2021/09/27 07:58:24;;;;;;;7.40;3.70;;;18.30;71.70;;;;;;1904568;75;21035;-47
2021/09/27 08:00:54;;;;;;;7.40;3.65;;;18.30;71.50;;;;;;1904720;75;21450;-50
2021/09/27 08:03:23;;;;;;;8.55;3.02;;;18.40;70.70;;;;;;1904790;75;21011;-50
2021/09/27 08:05:53;;;;;;;9.08;3.62;;;18.40;70.70;;;;;;1904225;75;21027;-45
2021/09/27 08:08:22;;;;;;;8.30;3.83;;;18.40;70.90;;;;;;1900690;74;21055;-45
2021/09/27 08:10:52;;;;;;;7.47;3.50;;;18.50;70.90;;;;;;1904630;75;21020;-47
2021/09/27 08:13:22;;;;;;;5.45;3.70;;;18.60;70.30;;;;;;1904543;75;21047;-45
2021/09/27 08:15:53;;;;;;;9.53;4.72;;;18.60;70.90;;;;;;1904510;75;21121;-45
2021/09/27 08:18:23;;;;;;;9.90;3.65;;;18.70;71.10;;;;;;1904620;75;21063;-45
2021/09/27 08:20:55;;;;;;;7.10;3.25;;;18.80;70.20;;;;;;1904541;74;21094;-44
2021/09/27 08:23:25;;;;;;;6.87;3.35;;;18.80;69.60;;;;;;1904668;74;20992;-48
2021/09/27 08:25:55;;;;;;;8.33;4.00;;;18.90;68.40;;;;;;1904725;75;21085;-47
2021/09/27 08:28:27;;;;;;;8.93;5.08;;;18.90;68.20;;;;;;1891511;75;21081;-49
2021/09/27 08:30:58;;;;;;;9.83;4.12;;;18.90;68.40;;;;;;1904551;74;21077;-46
2021/09/27 08:33:29;;;;;;;9.65;4.12;;;18.90;68.80;;;;;;1903725;74;21089;-46
2021/09/27 08:36:00;;;;;;;16.60;4.95;;;19.00;68.60;;;;;;1903546;75;21090;-45
2021/09/27 08:38:36;;;;;;;12.93;4.62;;;19.10;68.80;;;;;;1904053;75;21160;-46
2021/09/27 08:41:09;;;;;;;14.78;4.65;;;19.10;68.00;;;;;;1904044;74;22096;-44
2021/09/27 08:43:44;;;;;;;11.22;5.87;;;19.10;68.10;;;;;;1902947;75;22446;-46
2021/09/27 08:46:19;;;;;;;9.70;4.25;;;19.20;66.30;;;;;;1902927;74;21125;-50
2021/09/27 08:49:15;;;;;;;8.58;4.12;;;19.10;67.20;;;;;;1905591;75;21026;-49
2021/09/27 08:51:46;;;;;;;7.75;4.37;;;19.10;67.00;;;;;;1913459;75;21088;-50
2021/09/27 08:54:18;;;;;;;8.58;4.42;;;19.10;66.60;;;;;;1913679;75;21072;-48
2021/09/27 08:56:53;;;;;;;8.10;6.03;;;19.10;67.80;;;;;;1913595;75;21006;-46
2021/09/27 08:59:34;;;;;;;42.30;19.32;;;19.00;68.40;;;;;;1913771;75;21119;-47
2021/09/27 09:02:22;;;;;;;10.90;4.90;;;19.00;68.80;;;;;;1853299;76;21057;-48
2021/09/27 09:04:54;;;;;;;8.30;4.20;;;19.00;68.50;;;;;;1903369;74;21083;-48
2021/09/27 09:07:24;;;;;;;7.22;3.20;;;18.90;67.30;;;;;;1904190;74;21545;-46
2021/09/27 09:10:04;;;;;;;6.20;2.98;;;18.90;66.70;;;;;;1904409;74;21065;-46
2021/09/27 09:12:46;;;;;;;6.72;3.52;;;18.80;66.90;;;;;;1904496;75;21140;-49
2021/09/27 09:15:20;;;;;;;8.35;3.85;;;18.80;66.80;;;;;;1884133;75;21078;-47
2021/09/27 09:17:50;;;;;;;;;;;18.80;67.00;;;;;;1874446;76;21172;-44
2021/09/27 09:20:25;;;;;;;16.90;6.92;;;18.80;64.70;;;;;;1871907;77;20190;-47
2021/09/27 09:22:55;;;;;;;14.07;7.70;;;18.80;65.80;;;;;;1872147;77;21575;-48
2021/09/27 09:25:36;;;;;;;10.72;4.60;;;18.80;65.10;;;;;;1884124;75;21042;-47
2021/09/27 09:28:07;;;;;;;10.35;5.92;;;18.80;65.90;;;;;;1879140;75;21156;-46
2021/09/27 09:30:39;;;;;;;10.82;4.53;;;18.80;66.90;;;;;;1904150;74;21156;-47
2021/09/27 09:33:08;;;;;;;10.28;4.42;;;18.80;67.20;;;;;;1903792;74;21027;-46
2021/09/27 09:35:38;;;;;;;8.90;4.35;;;18.90;66.60;;;;;;1903590;75;21023;-46
2021/09/27 09:38:12;;;;;;;8.85;6.03;;;18.90;66.30;;;;;;1902451;75;21078;-48
2021/09/27 09:40:44;;;;;;;21.25;9.98;;;19.00;66.20;;;;;;1902347;75;21031;-48
2021/09/27 09:43:16;;;;;;;17.42;6.95;;;19.10;66.10;;;;;;1902357;75;21140;-47
2021/09/27 09:45:47;;;;;;;13.28;5.15;;;19.10;66.00;;;;;;1901251;75;21078;-46
2021/09/27 09:48:25;;;;;;;5.60;3.75;;;19.10;66.50;;;;;;1872342;75;21095;-48
2021/09/27 09:51:03;;;;;;;7.60;4.15;;;19.20;65.80;;;;;;1871576;77;21168;-47
2021/09/27 09:53:36;;;;;;;10.38;5.67;;;19.20;66.20;;;;;;1870401;76;21132;-49
2021/09/27 09:56:07;;;;;;;8.65;3.80;;;19.20;65.20;;;;;;1871921;77;21028;-47
2021/09/27 09:58:46;;;;;;;15.35;5.87;;;19.20;64.80;;;;;;1871583;76;21007;-47
2021/09/27 10:01:26;;;;;;;12.40;4.00;;;19.20;65.10;;;;;;1897698;75;21448;-50
2021/09/27 10:03:58;;;;;;;13.78;5.80;;;19.30;64.80;;;;;;1871577;75;21039;-48
2021/09/27 10:06:45;;;;;;;7.70;3.60;;;19.30;65.00;;;;;;1871737;76;21485;-46
2021/09/27 10:09:21;;;;;;;6.25;3.47;;;19.30;63.60;;;;;;1871071;76;21223;-47
2021/09/27 10:11:53;;;;;;;;;;;19.40;62.50;;;;;;1872238;76;21117;-46
2021/09/27 10:14:31;;;;;;;7.90;3.27;;;19.40;63.80;;;;;;1871821;77;20143;-45
2021/09/27 10:17:15;;;;;;;11.50;3.92;;;19.40;64.00;;;;;;1901109;74;21074;-46
2021/09/27 10:20:09;;;;;;;11.03;5.08;;;19.40;63.90;;;;;;1903466;74;21540;-45
2021/09/27 10:22:41;;;;;;;7.45;4.00;;;19.40;63.10;;;;;;1904673;75;21036;-45
2021/09/27 10:25:28;;;;;;;13.95;5.78;;;19.40;63.60;;;;;;1903670;74;21541;-45
2021/09/27 10:27:59;;;;;;;8.73;4.65;;;19.40;63.00;;;;;;1904217;74;21537;-49
2021/09/27 10:30:46;;;;;;;8.85;4.20;;;19.40;64.10;;;;;;1904515;74;20996;-48
2021/09/27 10:33:18;;;;;;;11.75;4.15;;;19.50;63.40;;;;;;1902941;75;20988;-48
2021/09/27 10:36:03;;;;;;;13.08;8.50;;;19.60;62.30;;;;;;1902836;75;21618;-49
2021/09/27 10:38:40;;;;;;;26.20;12.23;;;19.60;61.40;;;;;;1903844;75;21023;-49
2021/09/27 10:41:23;;;;;;;14.73;5.45;;;19.70;62.70;;;;;;1903457;74;21011;-46
2021/09/27 10:43:55;;;;;;;11.35;4.28;;;19.70;61.90;;;;;;1903659;75;21087;-46
2021/09/27 10:46:27;;;;;;;14.13;6.78;;;19.60;62.20;;;;;;1903708;75;21423;-47
2021/09/27 10:48:57;;;;;;;7.85;3.80;;;19.60;62.90;;;;;;1903871;75;21528;-47
2021/09/27 10:51:30;;;;;;;7.28;3.35;;;19.60;63.60;;;;;;1903385;75;21106;-47
2021/09/27 10:54:08;;;;;;;9.75;3.60;;;19.60;62.20;;;;;;1903858;74;21530;-48
2021/09/27 10:56:43;;;;;;;6.45;4.22;;;19.60;62.70;;;;;;1880011;75;21184;-47
2021/09/27 10:59:16;;;;;;;12.10;5.50;;;19.50;63.00;;;;;;1904430;75;21066;-49
2021/09/27 11:01:47;;;;;;;8.13;4.10;;;19.60;62.40;;;;;;1903512;74;21558;-49
2021/09/27 11:04:22;;;;;;;16.55;6.58;;;19.60;61.70;;;;;;1903928;75;21559;-51
2021/09/27 11:06:59;;;;;;;15.95;7.03;;;19.60;62.40;;;;;;1903322;74;21086;-50
2021/09/27 11:09:31;;;;;;;8.50;3.98;;;19.60;61.90;;;;;;1914652;74;21094;-46
2021/09/27 11:12:06;;;;;;;11.38;4.28;;;19.60;62.20;;;;;;1924057;74;21084;-49
2021/09/27 11:14:41;;;;;;;6.53;3.10;;;19.60;62.40;;;;;;1924255;74;21477;-50
2021/09/27 11:17:19;;;;;;;5.25;2.95;;;19.70;61.60;;;;;;1923888;74;21058;-50
2021/09/27 11:20:03;;;;;;;29.12;12.37;;;19.70;61.40;;;;;;1923940;74;21018;-50
2021/09/27 11:22:55;;;;;;;15.43;7.83;;;19.70;60.40;;;;;;1923105;74;21098;-50
2021/09/27 11:25:27;;;;;;;16.95;5.65;;;19.70;60.00;;;;;;1923865;74;21230;-49
2021/09/27 11:28:11;;;;;;;9.63;5.25;;;19.70;60.80;;;;;;1923837;74;21462;-46
2021/09/27 11:31:01;;;;;;;14.58;4.37;;;19.70;60.50;;;;;;1923948;74;21467;-50
2021/09/27 11:33:36;;;;;;;8.33;3.10;;;19.70;60.00;;;;;;1923821;74;21089;-48
2021/09/27 11:36:16;;;;;;;6.47;2.87;;;19.60;61.40;;;;;;1924231;74;21457;-51
2021/09/27 11:38:54;;;;;;;4.67;2.65;;;19.60;60.50;;;;;;1922427;74;21094;-49
2021/09/27 11:41:26;;;;;;;9.30;3.20;;;19.60;60.00;;;;;;1901839;74;21476;-51
2021/09/27 11:44:14;;;;;;;7.15;3.08;;;19.60;60.10;;;;;;1924272;74;21074;-47
2021/09/27 11:46:49;;;;;;;7.17;2.90;;;19.60;58.60;;;;;;1923956;74;21097;-51
2021/09/27 11:49:26;;;;;;;6.35;3.40;;;19.60;59.90;;;;;;1923124;74;21038;-46
2021/09/27 11:52:32;;;;;;;5.95;2.90;;;19.60;60.50;;;;;;1924164;74;20999;-49
2021/09/27 11:55:07;;;;;;;9.30;3.15;;;19.60;59.90;;;;;;1924082;74;21110;-46
2021/09/27 11:57:48;;;;;;;10.72;4.42;;;19.70;59.30;;;;;;1923312;74;21461;-50
2021/09/27 12:00:23;;;;;;;6.00;2.83;;;19.70;59.00;;;;;;1921011;74;21144;-48
2021/09/27 12:02:53;;;;;;;;;;;19.70;59.50;;;;;;1926954;74;21394;-49
2021/09/27 12:18:53;;;;;;;17.37;7.28;;;19.70;55.40;;;;;;1923734;74;27966;-50
2021/09/27 12:21:28;;;;;;;10.72;5.33;;;20.10;56.50;;;;;;1883451;75;21039;-46
2021/09/27 12:24:05;;;;;;;12.78;4.53;;;20.10;57.10;;;;;;1848761;76;21095;-47
2021/09/27 12:26:38;;;;;;;12.58;4.05;;;20.00;56.90;;;;;;1847826;77;21132;-48
2021/09/27 12:29:16;;;;;;;7.05;2.42;;;19.90;57.50;;;;;;1848694;76;21029;-49
2021/09/27 12:31:57;;;;;;;8.55;3.12;;;19.80;57.10;;;;;;1848682;76;21550;-46
2021/09/27 12:34:28;;;;;;;6.95;2.90;;;19.80;57.70;;;;;;1848575;77;21113;-50
2021/09/27 12:36:58;;;;;;;6.65;2.75;;;19.80;57.20;;;;;;1848581;76;21620;-49
2021/09/27 12:39:30;;;;;;;8.50;2.92;;;19.70;56.40;;;;;;1848836;76;21041;-52
2021/09/27 12:42:01;;;;;;;7.90;3.02;;;19.70;57.60;;;;;;1848994;76;21030;-47
2021/09/27 12:44:36;;;;;;;4.45;2.58;;;19.70;57.10;;;;;;1848820;77;21079;-50
2021/09/27 12:47:05;;;;;;;;;;;19.70;57.70;;;;;;1851602;77;21190;-48
2021/09/27 12:49:40;;;;;;;6.85;3.33;;;19.60;57.70;;;;;;1836687;77;20167;-48
2021/09/27 12:52:12;;;;;;;4.20;2.70;;;19.60;57.90;;;;;;1884781;76;21027;-49
2021/09/27 12:54:47;;;;;;;10.68;5.05;;;19.60;58.20;;;;;;1884837;75;21032;-50
2021/09/27 12:57:28;;;;;;;12.40;5.37;;;19.50;57.80;;;;;;1885217;76;21112;-49
2021/09/27 12:59:59;;;;;;;6.10;2.77;;;19.50;56.80;;;;;;1885219;76;21050;-48
2021/09/27 13:02:31;;;;;;;12.90;4.67;;;19.40;57.00;;;;;;1885231;76;21031;-50
2021/09/27 13:05:15;;;;;;;16.93;5.97;;;19.30;57.90;;;;;;1884937;75;21471;-50
2021/09/27 13:07:52;;;;;;;11.70;3.35;;;19.30;58.50;;;;;;1885151;75;21124;-52
2021/09/27 13:10:25;;;;;;;3.37;2.45;;;19.20;59.10;;;;;;1884082;75;21051;-51
2021/09/27 13:13:06;;;;;;;3.45;2.60;;;19.30;59.00;;;;;;1884983;76;21035;-51
2021/09/27 13:15:38;;;;;;;4.17;2.47;;;19.20;59.10;;;;;;1885117;75;21105;-52
2021/09/27 13:18:29;;;;;;;7.03;3.22;;;19.20;59.50;;;;;;1877828;75;21552;-49
2021/09/27 13:21:16;;;;;;;9.85;4.55;;;19.20;59.90;;;;;;1871847;76;21027;-52
2021/09/27 13:23:48;;;;;;;4.05;2.67;;;19.20;60.50;;;;;;1872041;76;21074;-51
2021/09/27 13:26:32;;;;;;;9.15;3.37;;;19.20;59.90;;;;;;1872468;75;21027;-52
2021/09/27 13:29:04;;;;;;;7.30;2.75;;;19.20;60.20;;;;;;1838164;76;21492;-52
2021/09/27 13:31:36;;;;;;;6.50;3.15;;;19.10;60.30;;;;;;1872522;77;21091;-52
2021/09/27 13:34:08;;;;;;;4.05;2.37;;;19.00;59.90;;;;;;1871126;76;21121;-51
2021/09/27 13:36:42;;;;;;;6.25;2.92;;;18.90;59.70;;;;;;1870742;76;21096;-50
2021/09/27 13:39:21;;;;;;;5.20;3.33;;;18.80;60.30;;;;;;1872623;77;21019;-51
2021/09/27 13:41:55;;;;;;;4.95;2.83;;;18.70;60.90;;;;;;1872612;77;21097;-50
2021/09/27 13:44:32;;;;;;;5.40;2.33;;;18.60;60.80;;;;;;1872763;76;21051;-51
2021/09/27 13:47:04;;;;;;;8.38;3.05;;;18.50;61.20;;;;;;1871640;76;21100;-52
2021/09/27 13:49:34;;;;;;;7.40;3.00;;;18.40;61.50;;;;;;1872739;77;21449;-52